createdAt,value
2019-01-24T02:00:51.164Z,1.72
2019-01-24T02:15:51.086Z,1.40
2019-01-24T02:30:51.029Z,1.85
2019-01-24T02:45:51.011Z,1.57
2019-01-24T03:00:51.008Z,1.98
2019-01-24T03:15:52.952Z,1.80
2019-01-24T03:30:51.253Z,1.92
2019-01-24T03:45:51.220Z,1.15
2019-01-24T04:00:51.173Z,1.65
2019-01-24T04:15:51.093Z,1.95
2019-01-24T04:30:51.197Z,1.20
2019-01-24T04:45:50.959Z,1.30
2019-01-24T05:00:51.448Z,1.60
2019-01-24T05:15:51.415Z,1.92
2019-01-24T05:30:51.389Z,2.15
2019-01-24T05:45:50.625Z,2.60
2019-01-24T06:00:51.087Z,2.92
2019-01-24T06:15:50.483Z,5.00
2019-01-24T06:30:50.395Z,4.80
2019-01-24T06:45:50.836Z,6.75
2019-01-24T07:00:50.812Z,7.75
2019-01-24T07:15:50.795Z,7.40
2019-01-24T07:30:50.691Z,5.78
2019-01-24T07:45:51.056Z,6.55
2019-01-24T08:00:50.896Z,7.75
2019-01-24T08:15:50.811Z,9.35
2019-01-24T08:30:50.730Z,6.47
2019-01-24T08:45:50.272Z,6.97
2019-01-24T09:00:51.601Z,7.60
2019-01-24T09:15:50.744Z,11.30
2019-01-24T09:30:50.756Z,21.45
2019-01-24T09:45:51.190Z,24.05
2019-01-24T10:00:51.256Z,15.30
2019-01-24T10:15:51.328Z,19.07
2019-01-24T10:30:51.677Z,18.98
2019-01-24T10:45:51.651Z,22.07
2019-01-24T11:00:52.954Z,20.30
2019-01-24T11:15:51.203Z,16.85
2019-01-24T11:30:50.987Z,18.02
2019-01-24T11:45:50.736Z,15.03
2019-01-24T12:00:53.868Z,16.95
2019-01-24T12:15:51.568Z,19.20
2019-01-24T12:30:52.476Z,14.65
2019-01-24T12:45:50.827Z,7.80
2019-01-24T13:00:50.756Z,24.45
2019-01-24T13:15:50.728Z,18.15
2019-01-24T13:30:52.235Z,16.60
2019-01-24T13:45:51.106Z,18.07
2019-01-24T14:00:50.946Z,18.73
2019-01-24T14:15:50.844Z,15.15
2019-01-24T14:30:51.164Z,14.70
2019-01-24T14:45:51.339Z,16.40
2019-01-24T15:00:55.604Z,15.98
2019-01-24T15:15:56.976Z,14.70
2019-01-24T15:30:51.007Z,19.30
2019-01-24T15:45:51.452Z,20.45
2019-01-24T16:00:52.369Z,17.57
2019-01-24T16:15:52.028Z,19.57
2019-01-24T16:30:50.869Z,18.95
2019-01-24T16:45:51.772Z,16.60
2019-01-24T17:00:57.628Z,17.20
2019-01-24T17:15:51.508Z,21.97
2019-01-24T17:30:53.356Z,14.80
2019-01-24T17:45:51.979Z,17.32
2019-01-24T18:00:53.226Z,20.08
2019-01-24T18:15:51.191Z,19.70
2019-01-24T18:30:52.040Z,18.27
2019-01-24T18:45:59.266Z,20.88
2019-01-24T19:00:51.148Z,17.77
2019-01-24T19:15:51.243Z,20.75
2019-01-24T19:30:53.012Z,14.53
2019-01-24T19:45:53.984Z,18.57
2019-01-24T20:00:52.307Z,13.68
2019-01-24T20:15:51.570Z,13.30
2019-01-24T20:30:52.825Z,15.48
2019-01-24T20:45:51.560Z,13.38
2019-01-24T21:00:52.055Z,18.82
2019-01-24T21:15:53.550Z,15.90
2019-01-24T21:30:51.570Z,15.72
2019-01-24T21:45:50.944Z,20.48
2019-01-24T22:00:51.919Z,17.80
2019-01-24T22:15:51.876Z,14.05
2019-01-24T22:30:59.936Z,19.40
2019-01-24T22:45:50.883Z,14.58
2019-01-24T23:15:50.716Z,18.17
2019-01-24T23:30:51.673Z,24.23
2019-01-24T23:45:53.857Z,22.58
